sensor_id;sensor_type;location;lat;lon;timestamp;P1;durP1;ratioP1;P2;durP2;ratioP2
60492;SDS011;46341;51.290;-2.474;2023-02-04T00:00:56;3.55;;;1.10;;
60492;SDS011;46341;51.290;-2.474;2023-02-04T00:03:22;2.13;;;1.15;;
60492;SDS011;46341;51.290;-2.474;2023-02-04T00:05:48;3.80;;;1.13;;
60492;SDS011;46341;51.290;-2.474;2023-02-04T00:08:15;1.75;;;1.17;;
60492;SDS011;46341;51.290;-2.474;2023-02-04T00:10:41;4.88;;;1.48;;
60492;SDS011;46341;51.290;-2.474;2023-02-04T00:13:07;3.85;;;1.35;;
60492;SDS011;46341;51.290;-2.474;2023-02-04T00:15:34;2.45;;;1.30;;
60492;SDS011;46341;51.290;-2.474;2023-02-04T00:18:00;3.05;;;1.13;;
60492;SDS011;46341;51.290;-2.474;2023-02-04T00:20:27;2.90;;;0.90;;
60492;SDS011;46341;51.290;-2.474;2023-02-04T00:22:54;3.00;;;1.13;;
60492;SDS011;46341;51.290;-2.474;2023-02-04T00:25:21;2.67;;;1.00;;
60492;SDS011;46341;51.290;-2.474;2023-02-04T00:27:47;4.70;;;0.70;;
60492;SDS011;46341;51.290;-2.474;2023-02-04T00:30:14;3.75;;;0.90;;
60492;SDS011;46341;51.290;-2.474;2023-02-04T00:32:40;2.90;;;0.80;;
60492;SDS011;46341;51.290;-2.474;2023-02-04T00:35:07;3.35;;;0.70;;
60492;SDS011;46341;51.290;-2.474;2023-02-04T00:37:34;2.67;;;0.50;;
60492;SDS011;46341;51.290;-2.474;2023-02-04T00:40:00;3.42;;;0.57;;
60492;SDS011;46341;51.290;-2.474;2023-02-04T00:42:27;2.05;;;0.55;;
60492;SDS011;46341;51.290;-2.474;2023-02-04T00:44:53;2.33;;;0.50;;
60492;SDS011;46341;51.290;-2.474;2023-02-04T00:47:19;3.40;;;0.80;;
60492;SDS011;46341;51.290;-2.474;2023-02-04T00:49:46;3.22;;;0.47;;
60492;SDS011;46341;51.290;-2.474;2023-02-04T00:52:12;2.60;;;0.52;;
60492;SDS011;46341;51.290;-2.474;2023-02-04T00:54:39;1.95;;;0.50;;
60492;SDS011;46341;51.290;-2.474;2023-02-04T00:57:05;4.30;;;0.52;;
60492;SDS011;46341;51.290;-2.474;2023-02-04T00:59:31;2.33;;;0.57;;
60492;SDS011;46341;51.290;-2.474;2023-02-04T01:01:58;2.65;;;0.60;;
60492;SDS011;46341;51.290;-2.474;2023-02-04T01:04:25;1.83;;;0.73;;
60492;SDS011;46341;51.290;-2.474;2023-02-04T01:09:19;2.05;;;0.60;;
60492;SDS011;46341;51.290;-2.474;2023-02-04T01:11:45;7.70;;;1.10;;
60492;SDS011;46341;51.290;-2.474;2023-02-04T01:14:12;2.60;;;1.00;;
60492;SDS011;46341;51.290;-2.474;2023-02-04T01:16:38;3.80;;;1.20;;
60492;SDS011;46341;51.290;-2.474;2023-02-04T01:19:05;2.42;;;0.77;;
60492;SDS011;46341;51.290;-2.474;2023-02-04T01:21:31;2.22;;;0.70;;
60492;SDS011;46341;51.290;-2.474;2023-02-04T01:23:58;3.53;;;0.98;;
60492;SDS011;46341;51.290;-2.474;2023-02-04T01:26:24;4.93;;;1.00;;
60492;SDS011;46341;51.290;-2.474;2023-02-04T01:28:50;3.30;;;1.10;;
60492;SDS011;46341;51.290;-2.474;2023-02-04T01:31:17;2.60;;;0.90;;
60492;SDS011;46341;51.290;-2.474;2023-02-04T01:33:43;4.40;;;1.20;;
60492;SDS011;46341;51.290;-2.474;2023-02-04T01:36:10;4.00;;;0.75;;
60492;SDS011;46341;51.290;-2.474;2023-02-04T01:38:36;4.43;;;1.00;;
60492;SDS011;46341;51.290;-2.474;2023-02-04T01:41:03;2.55;;;0.80;;
60492;SDS011;46341;51.290;-2.474;2023-02-04T01:43:30;3.13;;;1.00;;
60492;SDS011;46341;51.290;-2.474;2023-02-04T01:45:57;3.00;;;1.08;;
60492;SDS011;46341;51.290;-2.474;2023-02-04T01:48:24;4.85;;;1.25;;
60492;SDS011;46341;51.290;-2.474;2023-02-04T01:50:52;3.30;;;1.23;;
60492;SDS011;46341;51.290;-2.474;2023-02-04T01:53:22;2.22;;;0.75;;
60492;SDS011;46341;51.290;-2.474;2023-02-04T01:55:50;3.55;;;0.80;;
60492;SDS011;46341;51.290;-2.474;2023-02-04T01:58:16;1.77;;;0.87;;
60492;SDS011;46341;51.290;-2.474;2023-02-04T02:00:43;6.53;;;0.90;;
60492;SDS011;46341;51.290;-2.474;2023-02-04T02:03:09;2.88;;;1.00;;
60492;SDS011;46341;51.290;-2.474;2023-02-04T02:05:41;3.22;;;0.77;;
60492;SDS011;46341;51.290;-2.474;2023-02-04T02:08:08;3.70;;;1.30;;
60492;SDS011;46341;51.290;-2.474;2023-02-04T02:10:35;5.20;;;1.20;;
60492;SDS011;46341;51.290;-2.474;2023-02-04T02:13:03;1.58;;;0.57;;
60492;SDS011;46341;51.290;-2.474;2023-02-04T02:15:30;5.38;;;0.70;;
60492;SDS011;46341;51.290;-2.474;2023-02-04T02:17:56;2.15;;;0.60;;
60492;SDS011;46341;51.290;-2.474;2023-02-04T02:20:23;2.28;;;0.60;;
60492;SDS011;46341;51.290;-2.474;2023-02-04T02:25:29;3.67;;;0.57;;
60492;SDS011;46341;51.290;-2.474;2023-02-04T02:27:55;4.10;;;0.88;;
60492;SDS011;46341;51.290;-2.474;2023-02-04T02:30:22;2.70;;;0.60;;
60492;SDS011;46341;51.290;-2.474;2023-02-04T02:32:49;1.48;;;0.40;;
60492;SDS011;46341;51.290;-2.474;2023-02-04T02:37:43;1.90;;;0.43;;
60492;SDS011;46341;51.290;-2.474;2023-02-04T02:40:10;2.65;;;0.77;;
60492;SDS011;46341;51.290;-2.474;2023-02-04T02:42:37;2.00;;;0.50;;
60492;SDS011;46341;51.290;-2.474;2023-02-04T02:45:05;3.45;;;0.70;;
60492;SDS011;46341;51.290;-2.474;2023-02-04T02:47:33;2.03;;;0.70;;
60492;SDS011;46341;51.290;-2.474;2023-02-04T02:49:59;2.30;;;0.90;;
60492;SDS011;46341;51.290;-2.474;2023-02-04T02:52:26;3.85;;;0.60;;
60492;SDS011;46341;51.290;-2.474;2023-02-04T02:54:52;3.70;;;1.02;;
60492;SDS011;46341;51.290;-2.474;2023-02-04T02:57:19;4.05;;;0.50;;
60492;SDS011;46341;51.290;-2.474;2023-02-04T02:59:46;2.95;;;1.10;;
60492;SDS011;46341;51.290;-2.474;2023-02-04T03:02:14;3.55;;;0.50;;
60492;SDS011;46341;51.290;-2.474;2023-02-04T03:04:45;3.58;;;0.40;;
60492;SDS011;46341;51.290;-2.474;2023-02-04T03:07:13;2.60;;;0.30;;
60492;SDS011;46341;51.290;-2.474;2023-02-04T03:09:40;2.28;;;0.40;;
60492;SDS011;46341;51.290;-2.474;2023-02-04T03:12:06;1.83;;;0.50;;
60492;SDS011;46341;51.290;-2.474;2023-02-04T03:14:33;4.70;;;0.73;;
60492;SDS011;46341;51.290;-2.474;2023-02-04T03:17:00;4.70;;;0.50;;
60492;SDS011;46341;51.290;-2.474;2023-02-04T03:19:27;3.60;;;0.85;;
60492;SDS011;46341;51.290;-2.474;2023-02-04T03:21:54;0.85;;;0.30;;
60492;SDS011;46341;51.290;-2.474;2023-02-04T03:24:21;1.95;;;0.68;;
60492;SDS011;46341;51.290;-2.474;2023-02-04T03:26:47;2.42;;;0.50;;
60492;SDS011;46341;51.290;-2.474;2023-02-04T03:29:13;2.13;;;0.47;;
60492;SDS011;46341;51.290;-2.474;2023-02-04T03:31:40;2.25;;;0.60;;
60492;SDS011;46341;51.290;-2.474;2023-02-04T03:34:07;3.30;;;0.63;;
60492;SDS011;46341;51.290;-2.474;2023-02-04T03:36:33;1.80;;;0.38;;
60492;SDS011;46341;51.290;-2.474;2023-02-04T03:38:59;2.17;;;0.45;;
60492;SDS011;46341;51.290;-2.474;2023-02-04T03:41:27;1.67;;;0.40;;
60492;SDS011;46341;51.290;-2.474;2023-02-04T03:43:53;3.50;;;0.65;;
60492;SDS011;46341;51.290;-2.474;2023-02-04T03:46:20;5.45;;;0.60;;
60492;SDS011;46341;51.290;-2.474;2023-02-04T03:48:49;3.97;;;0.70;;
60492;SDS011;46341;51.290;-2.474;2023-02-04T03:51:15;2.63;;;0.68;;
60492;SDS011;46341;51.290;-2.474;2023-02-04T03:53:41;3.53;;;0.50;;
60492;SDS011;46341;51.290;-2.474;2023-02-04T03:56:08;3.15;;;1.00;;
60492;SDS011;46341;51.290;-2.474;2023-02-04T03:58:35;3.08;;;1.08;;
60492;SDS011;46341;51.290;-2.474;2023-02-04T04:01:02;5.28;;;1.42;;
60492;SDS011;46341;51.290;-2.474;2023-02-04T04:03:28;1.75;;;0.93;;
60492;SDS011;46341;51.290;-2.474;2023-02-04T04:05:54;3.45;;;0.70;;
60492;SDS011;46341;51.290;-2.474;2023-02-04T04:08:21;2.67;;;0.63;;
60492;SDS011;46341;51.290;-2.474;2023-02-04T04:10:47;2.65;;;1.00;;
60492;SDS011;46341;51.290;-2.474;2023-02-04T04:13:13;2.08;;;0.80;;
60492;SDS011;46341;51.290;-2.474;2023-02-04T04:15:40;4.28;;;0.80;;
60492;SDS011;46341;51.290;-2.474;2023-02-04T04:18:06;2.58;;;0.70;;
60492;SDS011;46341;51.290;-2.474;2023-02-04T04:20:32;2.40;;;0.80;;
60492;SDS011;46341;51.290;-2.474;2023-02-04T04:22:59;3.60;;;0.97;;
60492;SDS011;46341;51.290;-2.474;2023-02-04T04:25:26;3.88;;;0.93;;
60492;SDS011;46341;51.290;-2.474;2023-02-04T04:27:52;4.80;;;0.88;;
60492;SDS011;46341;51.290;-2.474;2023-02-04T04:30:19;2.92;;;0.98;;
60492;SDS011;46341;51.290;-2.474;2023-02-04T04:32:45;1.98;;;0.52;;
60492;SDS011;46341;51.290;-2.474;2023-02-04T04:35:11;5.32;;;0.90;;
60492;SDS011;46341;51.290;-2.474;2023-02-04T04:37:38;5.85;;;1.40;;
60492;SDS011;46341;51.290;-2.474;2023-02-04T04:40:04;4.05;;;0.90;;
60492;SDS011;46341;51.290;-2.474;2023-02-04T04:42:31;5.68;;;1.05;;
60492;SDS011;46341;51.290;-2.474;2023-02-04T04:44:57;4.20;;;0.80;;
60492;SDS011;46341;51.290;-2.474;2023-02-04T04:47:24;4.47;;;0.88;;
60492;SDS011;46341;51.290;-2.474;2023-02-04T04:49:50;5.22;;;0.80;;
60492;SDS011;46341;51.290;-2.474;2023-02-04T04:52:16;5.55;;;0.70;;
60492;SDS011;46341;51.290;-2.474;2023-02-04T04:54:43;2.95;;;0.63;;
60492;SDS011;46341;51.290;-2.474;2023-02-04T04:57:09;2.60;;;0.63;;
60492;SDS011;46341;51.290;-2.474;2023-02-04T04:59:35;5.00;;;0.60;;
60492;SDS011;46341;51.290;-2.474;2023-02-04T05:02:02;2.35;;;0.50;;
60492;SDS011;46341;51.290;-2.474;2023-02-04T05:04:28;5.03;;;0.93;;
60492;SDS011;46341;51.290;-2.474;2023-02-04T05:06:54;3.35;;;0.95;;
60492;SDS011;46341;51.290;-2.474;2023-02-04T05:09:21;4.22;;;0.77;;
60492;SDS011;46341;51.290;-2.474;2023-02-04T05:11:47;2.72;;;0.88;;
60492;SDS011;46341;51.290;-2.474;2023-02-04T05:14:14;3.00;;;0.50;;
60492;SDS011;46341;51.290;-2.474;2023-02-04T05:16:40;4.65;;;0.70;;
60492;SDS011;46341;51.290;-2.474;2023-02-04T05:19:06;2.83;;;0.90;;
60492;SDS011;46341;51.290;-2.474;2023-02-04T05:21:33;3.80;;;0.90;;
60492;SDS011;46341;51.290;-2.474;2023-02-04T05:23:59;5.60;;;1.02;;
60492;SDS011;46341;51.290;-2.474;2023-02-04T05:26:25;2.22;;;0.60;;
60492;SDS011;46341;51.290;-2.474;2023-02-04T05:28:56;5.93;;;0.90;;
60492;SDS011;46341;51.290;-2.474;2023-02-04T05:31:22;5.40;;;0.85;;
60492;SDS011;46341;51.290;-2.474;2023-02-04T05:33:49;4.70;;;1.00;;
60492;SDS011;46341;51.290;-2.474;2023-02-04T05:36:15;5.63;;;0.73;;
60492;SDS011;46341;51.290;-2.474;2023-02-04T05:38:42;5.60;;;0.70;;
60492;SDS011;46341;51.290;-2.474;2023-02-04T05:41:09;1.95;;;0.70;;
60492;SDS011;46341;51.290;-2.474;2023-02-04T05:43:35;4.72;;;1.10;;
60492;SDS011;46341;51.290;-2.474;2023-02-04T05:46:02;3.25;;;0.70;;
60492;SDS011;46341;51.290;-2.474;2023-02-04T05:48:28;3.78;;;0.52;;
60492;SDS011;46341;51.290;-2.474;2023-02-04T05:50:54;4.95;;;0.90;;
60492;SDS011;46341;51.290;-2.474;2023-02-04T05:53:21;2.10;;;0.70;;
60492;SDS011;46341;51.290;-2.474;2023-02-04T05:55:47;7.22;;;1.20;;
60492;SDS011;46341;51.290;-2.474;2023-02-04T05:58:14;4.13;;;0.57;;
60492;SDS011;46341;51.290;-2.474;2023-02-04T06:00:40;2.70;;;0.52;;
60492;SDS011;46341;51.290;-2.474;2023-02-04T06:03:06;3.80;;;0.77;;
60492;SDS011;46341;51.290;-2.474;2023-02-04T06:05:33;3.08;;;0.70;;
60492;SDS011;46341;51.290;-2.474;2023-02-04T06:07:59;3.63;;;0.70;;
60492;SDS011;46341;51.290;-2.474;2023-02-04T06:10:26;5.32;;;0.85;;
60492;SDS011;46341;51.290;-2.474;2023-02-04T06:12:52;5.30;;;0.90;;
60492;SDS011;46341;51.290;-2.474;2023-02-04T06:15:19;3.90;;;0.77;;
60492;SDS011;46341;51.290;-2.474;2023-02-04T06:17:45;2.83;;;0.77;;
60492;SDS011;46341;51.290;-2.474;2023-02-04T06:20:12;8.38;;;1.23;;
60492;SDS011;46341;51.290;-2.474;2023-02-04T06:22:39;4.68;;;1.50;;
60492;SDS011;46341;51.290;-2.474;2023-02-04T06:25:05;4.20;;;0.73;;
60492;SDS011;46341;51.290;-2.474;2023-02-04T06:27:31;5.72;;;1.08;;
60492;SDS011;46341;51.290;-2.474;2023-02-04T06:29:58;4.18;;;1.05;;
60492;SDS011;46341;51.290;-2.474;2023-02-04T06:32:24;2.63;;;0.70;;
60492;SDS011;46341;51.290;-2.474;2023-02-04T06:34:51;3.28;;;0.90;;
60492;SDS011;46341;51.290;-2.474;2023-02-04T06:37:17;3.38;;;0.90;;
60492;SDS011;46341;51.290;-2.474;2023-02-04T06:39:43;1.60;;;0.80;;
60492;SDS011;46341;51.290;-2.474;2023-02-04T06:42:10;4.38;;;0.82;;
60492;SDS011;46341;51.290;-2.474;2023-02-04T06:44:36;3.85;;;1.35;;
60492;SDS011;46341;51.290;-2.474;2023-02-04T06:47:03;4.22;;;1.17;;
60492;SDS011;46341;51.290;-2.474;2023-02-04T06:49:29;6.97;;;1.60;;
60492;SDS011;46341;51.290;-2.474;2023-02-04T06:51:55;4.78;;;1.52;;
60492;SDS011;46341;51.290;-2.474;2023-02-04T06:54:22;6.07;;;1.50;;
60492;SDS011;46341;51.290;-2.474;2023-02-04T06:56:48;7.65;;;1.58;;
60492;SDS011;46341;51.290;-2.474;2023-02-04T06:59:14;7.00;;;1.85;;
60492;SDS011;46341;51.290;-2.474;2023-02-04T07:01:41;6.03;;;1.95;;
60492;SDS011;46341;51.290;-2.474;2023-02-04T07:04:07;6.68;;;1.90;;
60492;SDS011;46341;51.290;-2.474;2023-02-04T07:06:34;5.38;;;1.80;;
60492;SDS011;46341;51.290;-2.474;2023-02-04T07:09:00;4.25;;;1.30;;
60492;SDS011;46341;51.290;-2.474;2023-02-04T07:11:26;7.82;;;2.47;;
60492;SDS011;46341;51.290;-2.474;2023-02-04T07:13:53;5.07;;;1.80;;
60492;SDS011;46341;51.290;-2.474;2023-02-04T07:16:19;7.10;;;1.83;;
60492;SDS011;46341;51.290;-2.474;2023-02-04T07:18:45;8.02;;;1.88;;
60492;SDS011;46341;51.290;-2.474;2023-02-04T07:21:12;3.53;;;1.75;;
60492;SDS011;46341;51.290;-2.474;2023-02-04T07:23:38;5.57;;;1.55;;
60492;SDS011;46341;51.290;-2.474;2023-02-04T07:26:04;4.85;;;1.77;;
60492;SDS011;46341;51.290;-2.474;2023-02-04T07:28:31;6.40;;;1.60;;
60492;SDS011;46341;51.290;-2.474;2023-02-04T07:30:57;4.65;;;1.48;;
60492;SDS011;46341;51.290;-2.474;2023-02-04T07:33:24;2.63;;;1.30;;
60492;SDS011;46341;51.290;-2.474;2023-02-04T07:35:50;4.25;;;1.10;;
60492;SDS011;46341;51.290;-2.474;2023-02-04T07:38:16;3.75;;;1.20;;
60492;SDS011;46341;51.290;-2.474;2023-02-04T07:40:43;6.93;;;1.27;;
60492;SDS011;46341;51.290;-2.474;2023-02-04T07:43:09;4.35;;;1.20;;
60492;SDS011;46341;51.290;-2.474;2023-02-04T07:45:36;6.15;;;1.40;;
60492;SDS011;46341;51.290;-2.474;2023-02-04T07:48:02;4.57;;;1.00;;
60492;SDS011;46341;51.290;-2.474;2023-02-04T07:50:29;5.85;;;1.20;;
60492;SDS011;46341;51.290;-2.474;2023-02-04T07:52:56;4.55;;;1.60;;
60492;SDS011;46341;51.290;-2.474;2023-02-04T07:55:22;4.60;;;1.80;;
60492;SDS011;46341;51.290;-2.474;2023-02-04T07:57:49;4.47;;;1.40;;
60492;SDS011;46341;51.290;-2.474;2023-02-04T08:00:15;4.55;;;1.08;;
60492;SDS011;46341;51.290;-2.474;2023-02-04T08:02:42;5.65;;;1.35;;
60492;SDS011;46341;51.290;-2.474;2023-02-04T08:05:08;4.85;;;1.30;;
60492;SDS011;46341;51.290;-2.474;2023-02-04T08:07:34;4.30;;;1.40;;
60492;SDS011;46341;51.290;-2.474;2023-02-04T08:10:02;7.82;;;1.15;;
60492;SDS011;46341;51.290;-2.474;2023-02-04T08:12:28;2.22;;;1.08;;
60492;SDS011;46341;51.290;-2.474;2023-02-04T08:14:55;3.97;;;1.25;;
60492;SDS011;46341;51.290;-2.474;2023-02-04T08:17:21;5.93;;;1.70;;
60492;SDS011;46341;51.290;-2.474;2023-02-04T08:19:48;4.72;;;1.80;;
60492;SDS011;46341;51.290;-2.474;2023-02-04T08:22:14;6.07;;;1.95;;
60492;SDS011;46341;51.290;-2.474;2023-02-04T08:24:40;4.40;;;1.77;;
60492;SDS011;46341;51.290;-2.474;2023-02-04T08:27:07;5.10;;;1.80;;
60492;SDS011;46341;51.290;-2.474;2023-02-04T08:29:33;3.65;;;1.65;;
60492;SDS011;46341;51.290;-2.474;2023-02-04T08:32:00;6.00;;;1.58;;
60492;SDS011;46341;51.290;-2.474;2023-02-04T08:34:26;2.90;;;1.25;;
60492;SDS011;46341;51.290;-2.474;2023-02-04T08:36:53;4.22;;;1.23;;
60492;SDS011;46341;51.290;-2.474;2023-02-04T08:39:19;3.78;;;1.60;;
60492;SDS011;46341;51.290;-2.474;2023-02-04T08:41:45;4.70;;;1.70;;
60492;SDS011;46341;51.290;-2.474;2023-02-04T08:44:14;6.68;;;1.52;;
60492;SDS011;46341;51.290;-2.474;2023-02-04T08:46:40;4.32;;;1.45;;
60492;SDS011;46341;51.290;-2.474;2023-02-04T08:49:07;5.13;;;1.60;;
60492;SDS011;46341;51.290;-2.474;2023-02-04T08:51:33;4.45;;;2.03;;
60492;SDS011;46341;51.290;-2.474;2023-02-04T08:53:59;5.78;;;2.15;;
60492;SDS011;46341;51.290;-2.474;2023-02-04T08:56:26;6.13;;;2.78;;
60492;SDS011;46341;51.290;-2.474;2023-02-04T08:58:52;5.13;;;2.08;;
60492;SDS011;46341;51.290;-2.474;2023-02-04T09:01:19;6.95;;;1.60;;
60492;SDS011;46341;51.290;-2.474;2023-02-04T09:03:45;7.00;;;2.22;;
60492;SDS011;46341;51.290;-2.474;2023-02-04T09:06:12;4.60;;;2.10;;
60492;SDS011;46341;51.290;-2.474;2023-02-04T09:08:38;4.93;;;1.60;;
60492;SDS011;46341;51.290;-2.474;2023-02-04T09:11:04;7.55;;;2.00;;
60492;SDS011;46341;51.290;-2.474;2023-02-04T09:13:31;17.00;;;3.95;;
60492;SDS011;46341;51.290;-2.474;2023-02-04T09:15:57;19.08;;;4.07;;
60492;SDS011;46341;51.290;-2.474;2023-02-04T09:18:24;8.88;;;2.35;;
60492;SDS011;46341;51.290;-2.474;2023-02-04T09:20:51;8.50;;;1.88;;
60492;SDS011;46341;51.290;-2.474;2023-02-04T09:23:18;3.58;;;1.50;;
60492;SDS011;46341;51.290;-2.474;2023-02-04T09:25:44;6.35;;;1.80;;
60492;SDS011;46341;51.290;-2.474;2023-02-04T09:28:11;5.07;;;1.77;;
60492;SDS011;46341;51.290;-2.474;2023-02-04T09:30:39;4.30;;;1.63;;
60492;SDS011;46341;51.290;-2.474;2023-02-04T09:33:05;3.13;;;1.20;;
60492;SDS011;46341;51.290;-2.474;2023-02-04T09:35:32;4.45;;;1.58;;
60492;SDS011;46341;51.290;-2.474;2023-02-04T09:37:59;5.90;;;1.55;;
60492;SDS011;46341;51.290;-2.474;2023-02-04T09:40:27;2.75;;;1.50;;
60492;SDS011;46341;51.290;-2.474;2023-02-04T09:42:55;5.35;;;1.65;;
60492;SDS011;46341;51.290;-2.474;2023-02-04T09:45:22;10.23;;;2.90;;
60492;SDS011;46341;51.290;-2.474;2023-02-04T09:47:49;6.43;;;2.30;;
60492;SDS011;46341;51.290;-2.474;2023-02-04T09:50:17;7.88;;;2.15;;
60492;SDS011;46341;51.290;-2.474;2023-02-04T09:52:45;4.63;;;1.85;;
60492;SDS011;46341;51.290;-2.474;2023-02-04T09:55:15;4.97;;;1.88;;
60492;SDS011;46341;51.290;-2.474;2023-02-04T09:57:42;9.85;;;2.03;;
60492;SDS011;46341;51.290;-2.474;2023-02-04T10:00:15;5.93;;;2.35;;
60492;SDS011;46341;51.290;-2.474;2023-02-04T10:02:42;2.97;;;1.45;;
60492;SDS011;46341;51.290;-2.474;2023-02-04T10:05:13;7.28;;;1.80;;
60492;SDS011;46341;51.290;-2.474;2023-02-04T10:07:40;4.65;;;1.80;;
60492;SDS011;46341;51.290;-2.474;2023-02-04T10:10:11;8.82;;;2.33;;
60492;SDS011;46341;51.290;-2.474;2023-02-04T10:12:38;5.65;;;2.72;;
60492;SDS011;46341;51.290;-2.474;2023-02-04T10:15:05;6.20;;;3.05;;
60492;SDS011;46341;51.290;-2.474;2023-02-04T10:17:36;6.72;;;2.30;;
60492;SDS011;46341;51.290;-2.474;2023-02-04T10:20:02;8.10;;;2.30;;
60492;SDS011;46341;51.290;-2.474;2023-02-04T10:22:29;4.50;;;2.00;;
60492;SDS011;46341;51.290;-2.474;2023-02-04T10:24:55;7.63;;;2.10;;
60492;SDS011;46341;51.290;-2.474;2023-02-04T10:27:22;4.13;;;1.55;;
60492;SDS011;46341;51.290;-2.474;2023-02-04T10:29:55;7.78;;;3.25;;
60492;SDS011;46341;51.290;-2.474;2023-02-04T10:32:29;7.70;;;4.05;;
60492;SDS011;46341;51.290;-2.474;2023-02-04T10:34:57;4.82;;;2.50;;
60492;SDS011;46341;51.290;-2.474;2023-02-04T10:37:24;5.57;;;2.97;;
60492;SDS011;46341;51.290;-2.474;2023-02-04T10:39:50;4.95;;;1.67;;
60492;SDS011;46341;51.290;-2.474;2023-02-04T10:42:46;5.07;;;1.83;;
60492;SDS011;46341;51.290;-2.474;2023-02-04T10:45:03;5.07;;;1.70;;
60492;SDS011;46341;51.290;-2.474;2023-02-04T10:47:30;5.68;;;1.95;;
60492;SDS011;46341;51.290;-2.474;2023-02-04T10:52:53;4.45;;;2.17;;
60492;SDS011;46341;51.290;-2.474;2023-02-04T10:55:40;4.35;;;1.50;;
60492;SDS011;46341;51.290;-2.474;2023-02-04T10:58:08;3.75;;;1.60;;
60492;SDS011;46341;51.290;-2.474;2023-02-04T11:00:36;4.97;;;1.67;;
60492;SDS011;46341;51.290;-2.474;2023-02-04T11:03:03;6.50;;;1.55;;
60492;SDS011;46341;51.290;-2.474;2023-02-04T11:07:56;5.40;;;1.60;;
60492;SDS011;46341;51.290;-2.474;2023-02-04T11:10:24;3.78;;;1.73;;
60492;SDS011;46341;51.290;-2.474;2023-02-04T11:18:02;7.15;;;2.20;;
60492;SDS011;46341;51.290;-2.474;2023-02-04T11:20:30;8.38;;;1.88;;
60492;SDS011;46341;51.290;-2.474;2023-02-04T11:23:12;3.10;;;2.20;;
60492;SDS011;46341;51.290;-2.474;2023-02-04T11:25:38;6.15;;;1.83;;
60492;SDS011;46341;51.290;-2.474;2023-02-04T11:28:12;5.82;;;1.80;;
60492;SDS011;46341;51.290;-2.474;2023-02-04T11:30:38;5.13;;;1.60;;
60492;SDS011;46341;51.290;-2.474;2023-02-04T11:33:05;4.68;;;1.67;;
60492;SDS011;46341;51.290;-2.474;2023-02-04T11:36:02;6.65;;;1.80;;
60492;SDS011;46341;51.290;-2.474;2023-02-04T11:38:29;6.65;;;1.88;;
60492;SDS011;46341;51.290;-2.474;2023-02-04T11:40:57;5.20;;;2.00;;
60492;SDS011;46341;51.290;-2.474;2023-02-04T11:43:24;4.47;;;2.10;;
60492;SDS011;46341;51.290;-2.474;2023-02-04T11:46:01;7.28;;;3.40;;
60492;SDS011;46341;51.290;-2.474;2023-02-04T11:48:29;5.03;;;2.20;;
60492;SDS011;46341;51.290;-2.474;2023-02-04T11:50:56;4.35;;;1.90;;
60492;SDS011;46341;51.290;-2.474;2023-02-04T11:53:29;3.83;;;1.40;;
60492;SDS011;46341;51.290;-2.474;2023-02-04T11:55:56;4.40;;;1.45;;
60492;SDS011;46341;51.290;-2.474;2023-02-04T11:58:23;4.78;;;1.60;;
60492;SDS011;46341;51.290;-2.474;2023-02-04T12:00:51;5.05;;;2.83;;
60492;SDS011;46341;51.290;-2.474;2023-02-04T12:03:55;5.70;;;1.90;;
60492;SDS011;46341;51.290;-2.474;2023-02-04T12:06:19;6.05;;;2.05;;
60492;SDS011;46341;51.290;-2.474;2023-02-04T12:08:45;8.23;;;2.33;;
60492;SDS011;46341;51.290;-2.474;2023-02-04T12:11:23;4.75;;;1.98;;
60492;SDS011;46341;51.290;-2.474;2023-02-04T12:13:53;5.78;;;2.25;;
60492;SDS011;46341;51.290;-2.474;2023-02-04T12:16:20;12.68;;;6.15;;
60492;SDS011;46341;51.290;-2.474;2023-02-04T12:18:46;25.25;;;15.73;;
60492;SDS011;46341;51.290;-2.474;2023-02-04T12:21:13;25.40;;;13.10;;
60492;SDS011;46341;51.290;-2.474;2023-02-04T12:23:39;3.92;;;2.60;;
60492;SDS011;46341;51.290;-2.474;2023-02-04T12:26:08;3.30;;;2.00;;
60492;SDS011;46341;51.290;-2.474;2023-02-04T12:28:34;5.13;;;1.90;;
60492;SDS011;46341;51.290;-2.474;2023-02-04T12:31:00;5.82;;;2.00;;
60492;SDS011;46341;51.290;-2.474;2023-02-04T12:33:27;6.43;;;2.25;;
60492;SDS011;46341;51.290;-2.474;2023-02-04T12:35:53;4.78;;;2.63;;
60492;SDS011;46341;51.290;-2.474;2023-02-04T12:38:20;5.10;;;2.50;;
60492;SDS011;46341;51.290;-2.474;2023-02-04T12:40:46;7.07;;;2.30;;
60492;SDS011;46341;51.290;-2.474;2023-02-04T12:43:13;6.28;;;2.00;;
60492;SDS011;46341;51.290;-2.474;2023-02-04T12:45:39;5.05;;;1.80;;
60492;SDS011;46341;51.290;-2.474;2023-02-04T12:48:11;4.40;;;1.95;;
60492;SDS011;46341;51.290;-2.474;2023-02-04T12:50:37;4.47;;;1.98;;
60492;SDS011;46341;51.290;-2.474;2023-02-04T12:53:04;5.25;;;2.42;;
60492;SDS011;46341;51.290;-2.474;2023-02-04T12:55:31;7.47;;;2.63;;
60492;SDS011;46341;51.290;-2.474;2023-02-04T12:57:58;5.43;;;2.40;;
60492;SDS011;46341;51.290;-2.474;2023-02-04T13:00:24;4.88;;;2.08;;
60492;SDS011;46341;51.290;-2.474;2023-02-04T13:02:52;7.65;;;2.55;;
60492;SDS011;46341;51.290;-2.474;2023-02-04T13:07:46;3.28;;;2.30;;
60492;SDS011;46341;51.290;-2.474;2023-02-04T13:10:13;5.28;;;3.20;;
60492;SDS011;46341;51.290;-2.474;2023-02-04T13:12:39;8.70;;;7.47;;
60492;SDS011;46341;51.290;-2.474;2023-02-04T13:15:06;6.18;;;5.43;;
60492;SDS011;46341;51.290;-2.474;2023-02-04T13:17:32;6.50;;;3.75;;
60492;SDS011;46341;51.290;-2.474;2023-02-04T13:19:59;8.82;;;3.90;;
60492;SDS011;46341;51.290;-2.474;2023-02-04T13:22:26;6.60;;;3.22;;
60492;SDS011;46341;51.290;-2.474;2023-02-04T13:24:52;6.63;;;3.15;;
60492;SDS011;46341;51.290;-2.474;2023-02-04T13:27:18;5.30;;;3.22;;
60492;SDS011;46341;51.290;-2.474;2023-02-04T13:29:45;4.35;;;2.72;;
60492;SDS011;46341;51.290;-2.474;2023-02-04T13:32:11;4.78;;;2.60;;
60492;SDS011;46341;51.290;-2.474;2023-02-04T13:34:37;5.60;;;3.20;;
60492;SDS011;46341;51.290;-2.474;2023-02-04T13:37:04;6.75;;;3.20;;
60492;SDS011;46341;51.290;-2.474;2023-02-04T13:39:30;5.90;;;3.10;;
60492;SDS011;46341;51.290;-2.474;2023-02-04T13:41:56;5.70;;;2.83;;
60492;SDS011;46341;51.290;-2.474;2023-02-04T13:44:23;4.50;;;2.90;;
60492;SDS011;46341;51.290;-2.474;2023-02-04T13:46:49;6.88;;;3.20;;
60492;SDS011;46341;51.290;-2.474;2023-02-04T13:49:17;2.88;;;2.55;;
60492;SDS011;46341;51.290;-2.474;2023-02-04T13:51:43;4.72;;;2.83;;
60492;SDS011;46341;51.290;-2.474;2023-02-04T13:54:09;7.72;;;2.80;;
60492;SDS011;46341;51.290;-2.474;2023-02-04T13:56:36;4.10;;;2.45;;
60492;SDS011;46341;51.290;-2.474;2023-02-04T13:59:02;6.03;;;3.05;;
60492;SDS011;46341;51.290;-2.474;2023-02-04T14:01:29;7.47;;;2.90;;
60492;SDS011;46341;51.290;-2.474;2023-02-04T14:03:55;4.63;;;2.40;;
60492;SDS011;46341;51.290;-2.474;2023-02-04T14:06:22;7.20;;;2.72;;
60492;SDS011;46341;51.290;-2.474;2023-02-04T14:08:49;4.78;;;2.70;;
60492;SDS011;46341;51.290;-2.474;2023-02-04T14:11:15;6.22;;;3.30;;
60492;SDS011;46341;51.290;-2.474;2023-02-04T14:13:42;7.95;;;3.10;;
60492;SDS011;46341;51.290;-2.474;2023-02-04T14:16:08;10.10;;;4.25;;
60492;SDS011;46341;51.290;-2.474;2023-02-04T14:18:35;9.88;;;3.92;;
60492;SDS011;46341;51.290;-2.474;2023-02-04T14:21:02;5.40;;;2.80;;
60492;SDS011;46341;51.290;-2.474;2023-02-04T14:23:28;4.60;;;2.72;;
60492;SDS011;46341;51.290;-2.474;2023-02-04T14:25:54;7.28;;;2.78;;
60492;SDS011;46341;51.290;-2.474;2023-02-04T14:28:21;8.35;;;2.92;;
60492;SDS011;46341;51.290;-2.474;2023-02-04T14:30:47;5.72;;;2.60;;
60492;SDS011;46341;51.290;-2.474;2023-02-04T14:33:14;5.28;;;2.70;;
60492;SDS011;46341;51.290;-2.474;2023-02-04T14:35:43;6.03;;;2.63;;
60492;SDS011;46341;51.290;-2.474;2023-02-04T14:38:09;5.22;;;2.95;;
60492;SDS011;46341;51.290;-2.474;2023-02-04T14:40:36;6.37;;;3.00;;
60492;SDS011;46341;51.290;-2.474;2023-02-04T14:43:03;7.93;;;3.50;;
60492;SDS011;46341;51.290;-2.474;2023-02-04T14:45:29;7.47;;;2.80;;
60492;SDS011;46341;51.290;-2.474;2023-02-04T14:47:55;4.75;;;3.13;;
60492;SDS011;46341;51.290;-2.474;2023-02-04T14:50:24;5.05;;;3.20;;
60492;SDS011;46341;51.290;-2.474;2023-02-04T14:52:52;5.57;;;2.97;;